Time;durP1;ratioP1;P1;durP2;ratioP2;P2;SDS_P1;SDS_P2;PMS_P1;PMS_P2;Temp;Humidity;BMP_temperature;BMP_pressure;BME280_temperature;BME280_humidity;BME280_pressure;Samples;Min_cycle;Max_cycle;Signal;HPM_P1;HPM_P2
2022/03/18 00:00:00;;;;;;;33.20;19.88;;;7.50;47.70;;;;;;5092826;28;20362;-79
2022/03/18 00:02:53;;;;;;;34.38;19.40;;;7.50;47.30;;;;;;5091678;28;20062;-79
2022/03/18 00:05:20;;;;;;;32.35;21.25;;;7.50;47.70;;;;;;5091308;28;20032;-79
2022/03/18 00:07:47;;;;;;;31.58;19.13;;;7.50;47.70;;;;;;5075062;28;20051;-79
2022/03/18 00:10:17;;;;;;;34.67;20.20;;;7.60;47.70;;;;;;5090032;28;20095;-80
2022/03/18 00:12:54;;;;;;;34.40;18.85;;;7.50;47.80;;;;;;5093320;28;20047;-79
2022/03/18 00:15:27;;;;;;;30.23;17.48;;;7.60;47.80;;;;;;5091275;28;20549;-76
2022/03/18 00:17:56;;;;;;;28.02;17.25;;;7.50;47.80;;;;;;5075482;28;20048;-80
2022/03/18 00:20:23;;;;;;;30.92;18.95;;;7.50;47.90;;;;;;5090860;28;20055;-79
2022/03/18 00:22:58;;;;;;;32.03;17.33;;;7.50;47.90;;;;;;5074803;28;20024;-74
2022/03/18 00:25:41;;;;;;;28.77;16.88;;;7.50;48.10;;;;;;5089921;28;20389;-74
2022/03/18 00:28:07;;;;;;;26.80;17.20;;;7.60;48.00;;;;;;5091667;28;20481;-80
2022/03/18 00:30:34;;;;;;;31.83;17.15;;;7.60;48.00;;;;;;5091232;28;20492;-74
2022/03/18 00:33:00;;;;;;;34.33;17.23;;;7.50;48.00;;;;;;5092793;28;20047;-74
2022/03/18 00:35:26;;;;;;;;;;;7.50;48.00;;;;;;5074527;28;20035;-79
2022/03/18 00:37:52;;;;;;;26.77;15.68;;;7.40;47.30;;;;;;5091651;28;19920;-74
2022/03/18 00:40:54;;;;;;;27.75;16.98;;;7.50;47.80;;;;;;5089806;28;20040;-80
2022/03/18 00:43:23;;;;;;;26.48;15.95;;;7.40;48.10;;;;;;5091563;28;20040;-77
2022/03/18 00:45:56;;;;;;;32.22;16.15;;;7.30;48.10;;;;;;5078285;28;20062;-74
2022/03/18 00:54:10;;;;;;;33.30;18.25;;;7.10;48.90;;;;;;5095234;28;20113;-74
2022/03/18 00:56:37;;;;;;;26.67;15.10;;;7.10;48.70;;;;;;5094483;28;20046;-74
2022/03/18 00:59:10;;;;;;;30.38;17.85;;;7.10;48.70;;;;;;5078200;28;20126;-79
2022/03/18 01:01:42;;;;;;;29.70;15.95;;;7.10;49.00;;;;;;5077644;28;20028;-80
2022/03/18 01:04:08;;;;;;;26.40;16.00;;;7.10;48.90;;;;;;5078029;28;20036;-74
2022/03/18 01:06:39;;;;;;;26.15;15.45;;;7.00;49.00;;;;;;5078019;28;20107;-80
2022/03/18 01:09:06;;;;;;;27.05;16.02;;;7.00;49.00;;;;;;5093772;28;20039;-80
2022/03/18 01:11:32;;;;;;;28.10;16.42;;;7.00;49.00;;;;;;5093988;28;20565;-80
2022/03/18 01:14:01;;;;;;;31.17;16.58;;;7.00;49.10;;;;;;5094487;28;20110;-79
2022/03/18 01:16:29;;;;;;;31.25;17.58;;;6.90;49.30;;;;;;5095387;28;20119;-80
2022/03/18 01:19:08;;;;;;;25.27;15.30;;;6.90;49.50;;;;;;5094900;28;20039;-80
2022/03/18 01:21:34;;;;;;;26.52;15.82;;;6.90;49.40;;;;;;5091049;28;20036;-79
2022/03/18 01:24:02;;;;;;;28.05;15.18;;;6.80;50.00;;;;;;5093950;28;20024;-80
2022/03/18 01:26:50;;;;;;;25.60;15.50;;;6.80;50.20;;;;;;5090106;28;20078;-74
2022/03/18 01:29:31;;;;;;;31.30;16.55;;;6.80;50.40;;;;;;5091004;28;20040;-80
2022/03/18 01:32:01;;;;;;;29.00;16.20;;;6.80;50.40;;;;;;5073642;28;20036;-80
2022/03/18 01:34:27;;;;;;;29.60;17.02;;;6.80;50.20;;;;;;5057785;28;20119;-75
2022/03/18 01:36:54;;;;;;;33.22;17.80;;;6.80;50.70;;;;;;5090544;28;20043;-79
2022/03/18 01:39:22;;;;;;;29.35;16.73;;;6.70;50.80;;;;;;5091952;28;20063;-74
2022/03/18 01:41:51;;;;;;;26.08;15.00;;;6.70;51.10;;;;;;5077257;28;20059;-79
2022/03/18 01:44:23;;;;;;;28.67;15.45;;;6.60;51.10;;;;;;5093898;28;20115;-80
2022/03/18 01:46:52;;;;;;;30.90;17.23;;;6.60;51.00;;;;;;5093935;28;20065;-80
2022/03/18 01:49:21;;;;;;;31.33;15.98;;;6.60;51.10;;;;;;5076776;28;20032;-74
2022/03/18 01:51:50;;;;;;;27.52;15.10;;;6.60;51.30;;;;;;5093214;28;20134;-74
2022/03/18 01:57:06;;;;;;;26.50;14.52;;;6.50;51.60;;;;;;5072747;28;20101;-80
2022/03/18 01:59:33;;;;;;;32.03;17.75;;;6.50;50.90;;;;;;5090440;28;20094;-80
2022/03/18 02:02:00;;;;;;;26.80;14.52;;;6.50;51.40;;;;;;5089995;28;20044;-79
2022/03/18 02:04:40;;;;;;;27.02;15.82;;;6.50;51.30;;;;;;5074189;28;20036;-74
2022/03/18 02:07:09;;;;;;;28.27;15.35;;;6.50;51.30;;;;;;5073044;28;20046;-74
2022/03/18 02:09:38;;;;;;;28.25;15.15;;;6.50;51.20;;;;;;5074465;28;20021;-80
2022/03/18 02:12:12;;;;;;;31.73;17.67;;;6.40;50.90;;;;;;5076148;28;20413;-79
2022/03/18 02:14:58;;;;;;;27.80;15.48;;;6.40;50.70;;;;;;5092936;28;20119;-80
2022/03/18 02:17:34;;;;;;;26.38;16.05;;;6.40;50.90;;;;;;5094417;28;20063;-79
2022/03/18 02:20:04;;;;;;;28.48;17.25;;;6.40;50.80;;;;;;5093832;28;20036;-80
2022/03/18 02:22:56;;;;;;;27.48;16.38;;;6.40;51.00;;;;;;5076478;28;20028;-74
2022/03/18 02:25:32;;;;;;;23.70;14.45;;;6.30;50.80;;;;;;5091760;28;20048;-79
2022/03/18 02:28:02;;;;;;;23.17;14.00;;;6.40;51.20;;;;;;5094914;28;20537;-74
2022/03/18 02:30:30;;;;;;;30.17;14.82;;;6.30;51.30;;;;;;5093619;28;20028;-74
2022/03/18 02:32:57;;;;;;;25.58;15.48;;;6.30;51.60;;;;;;5093293;28;20032;-79
2022/03/18 02:35:23;;;;;;;26.33;14.75;;;6.20;51.20;;;;;;5075904;28;20043;-80
2022/03/18 02:38:00;;;;;;;27.67;15.35;;;6.20;51.50;;;;;;5093097;28;20488;-74
2022/03/18 02:40:28;;;;;;;23.20;13.75;;;6.20;52.00;;;;;;5091820;28;20036;-75
2022/03/18 02:42:55;;;;;;;22.25;14.07;;;6.20;51.60;;;;;;5076381;28;20032;-79
2022/03/18 02:45:27;;;;;;;26.52;15.60;;;6.20;51.50;;;;;;5092537;28;20141;-75
2022/03/18 02:48:00;;;;;;;27.63;13.88;;;6.20;51.50;;;;;;5093402;28;20450;-80
2022/03/18 02:50:26;;;;;;;26.95;14.30;;;6.20;51.60;;;;;;5093456;28;20033;-74
2022/03/18 02:52:52;;;;;;;27.80;15.57;;;6.20;51.50;;;;;;5092807;28;20442;-74
2022/03/18 02:55:27;;;;;;;26.38;15.32;;;6.20;51.40;;;;;;5091276;28;20531;-74
2022/03/18 02:57:53;;;;;;;25.48;14.45;;;6.10;51.40;;;;;;5092956;28;20037;-78
2022/03/18 03:00:25;;;;;;;25.42;15.77;;;6.10;51.50;;;;;;5093193;28;20024;-79
2022/03/18 03:02:54;;;;;;;28.63;15.45;;;6.00;51.40;;;;;;5094505;28;20044;-74
2022/03/18 03:08:17;;;;;;;29.40;15.57;;;6.00;51.60;;;;;;5093775;28;20055;-74
2022/03/18 03:10:56;;;;;;;25.08;15.40;;;6.00;51.70;;;;;;5090876;28;20101;-79
2022/03/18 03:13:23;;;;;;;23.52;14.68;;;5.80;51.90;;;;;;5092894;28;20040;-74
2022/03/18 03:15:53;;;;;;;25.60;14.00;;;5.80;51.70;;;;;;5091823;28;20024;-74
2022/03/18 03:18:19;;;;;;;24.25;14.23;;;5.80;51.70;;;;;;5075626;28;20434;-74
2022/03/18 03:20:48;;;;;;;25.63;13.98;;;5.80;51.80;;;;;;5092058;28;20031;-80
2022/03/18 03:23:15;;;;;;;26.35;13.07;;;5.70;51.70;;;;;;5075775;28;20092;-81
2022/03/18 03:25:42;;;;;;;25.10;14.05;;;5.70;51.90;;;;;;5092038;28;20032;-79
2022/03/18 03:28:09;;;;;;;24.33;14.25;;;5.70;51.90;;;;;;5092471;28;20058;-79
2022/03/18 03:30:35;;;;;;;;;;;5.60;51.60;;;;;;5093530;28;20397;-80
2022/03/18 03:33:01;;;;;;;25.30;13.20;;;5.50;51.90;;;;;;5075397;28;19943;-79
2022/03/18 03:35:28;;;;;;;23.75;13.95;;;5.40;52.10;;;;;;5091644;28;20075;-79
2022/03/18 03:37:59;;;;;;;24.92;13.32;;;5.40;52.40;;;;;;5093003;28;20527;-79
2022/03/18 03:40:25;;;;;;;26.25;12.73;;;5.30;52.50;;;;;;5090569;28;20538;-74
2022/03/18 03:42:52;;;;;;;;;;;5.20;52.10;;;;;;5075894;28;20111;-78
2022/03/18 03:45:28;;;;;;;22.55;12.90;;;5.20;52.20;;;;;;5091620;28;20007;-79
2022/03/18 03:48:29;;;;;;;20.08;11.27;;;5.20;52.50;;;;;;5093806;28;20541;-83
2022/03/18 03:51:03;;;;;;;22.45;12.50;;;5.30;52.40;;;;;;5076924;28;20036;-74
2022/03/18 03:53:30;;;;;;;25.35;12.82;;;5.40;52.20;;;;;;5059712;28;20075;-74
2022/03/18 03:55:56;;;;;;;22.13;12.23;;;5.40;52.00;;;;;;5090179;28;20046;-74
2022/03/18 03:58:25;;;;;;;24.90;13.57;;;5.40;52.00;;;;;;5093388;28;20111;-79
2022/03/18 04:00:51;;;;;;;24.80;13.18;;;5.40;52.20;;;;;;5091424;28;20415;-74
2022/03/18 04:03:21;;;;;;;27.70;12.93;;;5.30;52.60;;;;;;5092113;28;20065;-80
2022/03/18 04:05:49;;;;;;;25.33;13.63;;;5.30;52.80;;;;;;5074491;28;20036;-74
2022/03/18 04:08:15;;;;;;;26.75;15.20;;;5.30;53.00;;;;;;5091783;28;20119;-74
2022/03/18 04:11:07;;;;;;;24.95;14.07;;;5.30;53.10;;;;;;5090200;28;21394;-79
2022/03/18 04:13:34;;;;;;;25.10;14.60;;;5.30;53.10;;;;;;5091276;28;20040;-79
2022/03/18 04:16:02;;;;;;;27.38;14.32;;;5.40;52.90;;;;;;5092576;28;20032;-74
2022/03/18 04:18:28;;;;;;;26.70;15.13;;;5.40;53.10;;;;;;5092345;28;20063;-79
2022/03/18 04:20:55;;;;;;;29.25;17.48;;;5.50;53.10;;;;;;5096569;28;20107;-74
2022/03/18 04:23:23;;;;;;;28.70;16.58;;;5.60;53.20;;;;;;5095823;28;20079;-74
2022/03/18 04:25:51;;;;;;;32.55;17.40;;;5.60;53.40;;;;;;5094283;28;20043;-74
2022/03/18 04:28:18;;;;;;;38.53;17.10;;;5.70;53.60;;;;;;5097193;28;20232;-80
2022/03/18 04:30:47;;;;;;;32.25;17.08;;;5.70;53.50;;;;;;5095134;28;20110;-74
2022/03/18 04:33:22;;;;;;;30.70;16.88;;;5.80;53.50;;;;;;5096944;28;20033;-74
2022/03/18 04:35:48;;;;;;;28.80;17.33;;;5.90;53.90;;;;;;5095015;28;20397;-79
2022/03/18 04:38:14;;;;;;;36.28;18.08;;;6.00;53.70;;;;;;5095739;28;20595;-79
2022/03/18 04:40:46;;;;;;;32.45;18.50;;;6.10;54.00;;;;;;5094168;28;20028;-74
2022/03/18 04:43:12;;;;;;;34.65;18.65;;;6.10;54.30;;;;;;5077373;28;20048;-80
2022/03/18 04:45:38;;;;;;;;;;;6.10;53.80;;;;;;5095509;28;20028;-74
2022/03/18 04:48:05;;;;;;;33.38;17.73;;;6.10;53.80;;;;;;5078512;28;19920;-74
2022/03/18 04:50:31;;;;;;;34.53;19.00;;;6.20;54.00;;;;;;5095911;28;20035;-80
2022/03/18 04:53:04;;;;;;;35.88;19.83;;;6.20;54.30;;;;;;5095383;28;20048;-74
2022/03/18 04:55:50;;;;;;;40.50;19.48;;;6.20;54.50;;;;;;5094838;28;20024;-74
2022/03/18 04:58:21;;;;;;;37.28;18.77;;;6.20;54.80;;;;;;5096721;28;20135;-80
2022/03/18 05:00:47;;;;;;;35.33;19.08;;;6.20;55.10;;;;;;5060933;28;20035;-79
2022/03/18 05:03:13;;;;;;;32.55;19.10;;;6.20;55.40;;;;;;5095254;28;20036;-80
2022/03/18 05:05:39;;;;;;;37.78;19.10;;;6.20;55.50;;;;;;5077705;28;20105;-74
2022/03/18 05:08:24;;;;;;;36.53;19.75;;;6.30;55.60;;;;;;5094958;28;20028;-75
2022/03/18 05:10:50;;;;;;;36.97;19.35;;;6.30;55.70;;;;;;5093838;28;20052;-74
2022/03/18 05:13:18;;;;;;;41.40;19.40;;;6.30;55.80;;;;;;5095976;28;20036;-80
2022/03/18 05:15:45;;;;;;;37.65;19.13;;;6.30;56.10;;;;;;5094339;28;20432;-80
2022/03/18 05:18:11;;;;;;;37.17;18.80;;;6.30;56.10;;;;;;5096032;28;20033;-80
2022/03/18 05:20:57;;;;;;;36.33;18.63;;;6.30;56.30;;;;;;5094527;28;20036;-80
2022/03/18 05:23:24;;;;;;;41.38;20.55;;;6.30;56.30;;;;;;5077882;28;20032;-74
2022/03/18 05:25:50;;;;;;;35.92;19.38;;;6.30;55.70;;;;;;5077343;28;20028;-81
2022/03/18 05:28:19;;;;;;;35.33;20.45;;;6.40;56.30;;;;;;5093751;28;20036;-74
2022/03/18 05:31:08;;;;;;;41.72;21.15;;;6.40;56.40;;;;;;5076449;28;20037;-80
2022/03/18 05:33:34;;;;;;;34.90;21.00;;;6.40;56.40;;;;;;5095968;28;20042;-80
2022/03/18 05:36:00;;;;;;;37.08;19.67;;;6.40;56.10;;;;;;5095345;28;20056;-75
2022/03/18 05:38:29;;;;;;;;;;;6.50;56.20;;;;;;5094911;28;20085;-79
2022/03/18 05:40:55;;;;;;;36.78;19.23;;;6.50;55.50;;;;;;5095079;28;19912;-80
2022/03/18 05:43:30;;;;;;;36.90;19.15;;;6.50;55.80;;;;;;5093209;28;20048;-79
2022/03/18 05:45:56;;;;;;;37.55;18.98;;;6.60;55.90;;;;;;5093911;28;20044;-75
2022/03/18 05:48:57;;;;;;;35.22;20.42;;;6.60;56.20;;;;;;5094494;28;20036;-74
2022/03/18 05:51:24;;;;;;;38.10;19.73;;;6.70;56.50;;;;;;5076842;28;20420;-74
2022/03/18 05:53:50;;;;;;;44.53;22.67;;;6.70;56.30;;;;;;5095464;28;20032;-80
2022/03/18 05:59:21;;;;;;;41.30;21.15;;;6.90;55.80;;;;;;5074947;28;20047;-75
2022/03/18 06:01:48;;;;;;;38.22;20.20;;;6.90;56.00;;;;;;5089211;28;20140;-80
2022/03/18 06:04:34;;;;;;;39.63;19.73;;;7.00;56.50;;;;;;5073598;28;20032;-81
2022/03/18 06:07:04;;;;;;;35.47;19.40;;;7.10;56.00;;;;;;5074563;28;20101;-80
2022/03/18 06:12:17;;;;;;;37.42;20.23;;;7.30;56.30;;;;;;5079769;28;20364;-80
2022/03/18 06:14:52;;;;;;;39.05;19.55;;;7.40;56.30;;;;;;5093676;28;20035;-75
2022/03/18 06:17:29;;;;;;;41.80;21.75;;;7.50;56.20;;;;;;5093212;28;20496;-75
2022/03/18 06:19:55;;;;;;;38.13;21.10;;;7.60;56.30;;;;;;5093413;28;20062;-74
2022/03/18 06:22:22;;;;;;;43.25;22.52;;;7.60;56.10;;;;;;5093286;28;20044;-80
2022/03/18 06:24:48;;;;;;;40.05;21.08;;;7.70;56.10;;;;;;5060193;28;20073;-75
2022/03/18 06:27:14;;;;;;;38.05;20.92;;;7.80;56.10;;;;;;5091632;28;20070;-81
2022/03/18 06:29:43;;;;;;;;;;;7.80;56.10;;;;;;5095297;28;20028;-74
2022/03/18 06:32:12;;;;;;;43.25;20.83;;;7.90;55.70;;;;;;5092725;28;19920;-75
2022/03/18 06:34:44;;;;;;;34.35;19.20;;;8.00;55.40;;;;;;5093319;28;20040;-75
2022/03/18 06:37:13;;;;;;;36.55;19.98;;;8.10;55.60;;;;;;5094255;28;20093;-75
2022/03/18 06:39:41;;;;;;;46.17;21.80;;;8.20;56.30;;;;;;5093649;28;20036;-75
2022/03/18 06:42:07;;;;;;;35.22;20.45;;;8.20;55.40;;;;;;5091103;28;20036;-81
2022/03/18 06:44:34;;;;;;;37.08;20.83;;;8.30;54.70;;;;;;5094052;28;20036;-75
2022/03/18 06:47:00;;;;;;;45.72;22.10;;;8.40;55.20;;;;;;5092923;28;20115;-78
2022/03/18 06:49:33;;;;;;;40.35;20.42;;;8.50;55.30;;;;;;5092982;28;20063;-81
2022/03/18 06:52:03;;;;;;;37.88;21.20;;;8.50;55.30;;;;;;5093179;28;20083;-75
2022/03/18 06:54:44;;;;;;;43.28;24.90;;;8.50;55.20;;;;;;5093088;28;20032;-81
2022/03/18 06:57:10;;;;;;;37.17;20.77;;;8.60;55.10;;;;;;5091810;28;20047;-81
2022/03/18 06:59:46;;;;;;;36.78;20.67;;;8.70;54.90;;;;;;5092827;28;20501;-75
2022/03/18 07:02:17;;;;;;;45.15;23.00;;;8.80;54.60;;;;;;5075315;28;20036;-79
2022/03/18 07:04:43;;;;;;;34.22;20.40;;;8.90;54.60;;;;;;5092843;28;20028;-75
2022/03/18 07:07:32;;;;;;;41.42;20.67;;;9.10;54.60;;;;;;5092013;28;20126;-75
2022/03/18 07:09:58;;;;;;;40.95;21.05;;;9.20;54.00;;;;;;5092664;28;20119;-83
2022/03/18 07:12:24;;;;;;;43.00;21.27;;;9.30;54.00;;;;;;5092321;28;20056;-81
2022/03/18 07:14:55;;;;;;;37.05;19.80;;;9.50;53.80;;;;;;5092685;28;20633;-81
2022/03/18 07:20:09;;;;;;;36.40;18.55;;;9.70;53.10;;;;;;5093082;28;20518;-75
2022/03/18 07:22:35;;;;;;;32.47;17.42;;;9.80;52.50;;;;;;5092169;28;20040;-75
2022/03/18 07:25:02;;;;;;;36.85;19.02;;;10.00;52.40;;;;;;5092226;28;20025;-82
2022/03/18 07:27:36;;;;;;;;;;;10.00;52.00;;;;;;5093563;28;20126;-83
2022/03/18 07:30:09;;;;;;;36.88;18.60;;;10.10;52.10;;;;;;5108657;28;19912;-82
2022/03/18 07:32:47;;;;;;;29.55;16.65;;;10.20;51.10;;;;;;5093519;28;20050;-76
2022/03/18 07:35:16;;;;;;;32.13;17.20;;;10.40;50.50;;;;;;5091676;28;20094;-81
2022/03/18 07:37:47;;;;;;;29.20;17.33;;;10.50;50.20;;;;;;5093708;28;20036;-82
2022/03/18 07:40:15;;;;;;;33.50;18.33;;;10.60;50.20;;;;;;5075342;28;20032;-81
2022/03/18 07:43:00;;;;;;;28.95;16.10;;;10.70;50.00;;;;;;5091135;28;20042;-82
2022/03/18 07:45:31;;;;;;;32.42;16.58;;;10.90;49.40;;;;;;5091777;28;20048;-75
2022/03/18 07:48:27;;;;;;;33.78;16.33;;;10.90;49.10;;;;;;5092322;28;20066;-82
2022/03/18 07:50:55;;;;;;;31.75;16.80;;;11.10;49.10;;;;;;5091328;28;20028;-75
2022/03/18 07:53:21;;;;;;;33.25;16.63;;;11.30;48.60;;;;;;5092536;28;20178;-82
2022/03/18 07:55:48;;;;;;;36.70;16.00;;;11.70;48.00;;;;;;5091583;28;20032;-83
2022/03/18 07:58:14;;;;;;;;;;;12.10;47.40;;;;;;5092193;28;20040;-83
2022/03/18 08:00:41;;;;;;;32.35;16.20;;;12.70;47.50;;;;;;5091772;28;20361;-82
2022/03/18 08:03:07;;;;;;;38.47;20.60;;;13.30;45.60;;;;;;5092274;28;20074;-76
2022/03/18 08:05:33;;;;;;;38.80;20.05;;;13.70;44.60;;;;;;5091345;28;20093;-76
2022/03/18 08:07:59;;;;;;;33.05;18.02;;;14.10;44.30;;;;;;5074998;28;20085;-83
2022/03/18 08:10:31;;;;;;;37.00;18.15;;;14.50;43.50;;;;;;5091252;28;20051;-85
2022/03/18 08:12:58;;;;;;;34.15;18.85;;;14.80;42.40;;;;;;5091489;28;20040;-86
2022/03/18 08:15:28;;;;;;;;;;;14.90;41.00;;;;;;5093014;28;20036;-84
2022/03/18 08:18:02;;;;;;;37.30;21.95;;;15.20;42.80;;;;;;5075940;28;19920;-85
2022/03/18 08:20:30;;;;;;;31.15;19.20;;;15.50;40.70;;;;;;5074536;28;20097;-84
2022/03/18 08:22:56;;;;;;;35.42;18.10;;;15.40;40.60;;;;;;5075739;28;20496;-85
2022/03/18 08:25:22;;;;;;;29.42;17.88;;;15.50;40.20;;;;;;5074281;28;20078;-85
2022/03/18 08:28:07;;;;;;;27.63;16.23;;;15.60;39.30;;;;;;5091686;28;20501;-84
2022/03/18 08:30:42;;;;;;;29.90;16.52;;;15.60;39.50;;;;;;5091032;28;20032;-76
2022/03/18 08:33:20;;;;;;;34.03;17.63;;;15.80;39.10;;;;;;5092060;28;20083;-86
2022/03/18 08:35:48;;;;;;;28.48;17.10;;;16.00;37.90;;;;;;5091239;28;20036;-79
2022/03/18 08:38:14;;;;;;;33.88;19.10;;;16.00;37.90;;;;;;5091919;28;20054;-76
2022/03/18 08:40:51;;;;;;;36.85;17.85;;;15.90;37.40;;;;;;5074312;28;20028;-76
2022/03/18 08:43:17;;;;;;;35.72;17.33;;;15.90;37.20;;;;;;5091972;28;20050;-76
2022/03/18 08:45:43;;;;;;;30.77;17.67;;;16.10;37.30;;;;;;5074497;28;20043;-77
2022/03/18 08:48:09;;;;;;;34.38;18.95;;;16.70;36.50;;;;;;5074797;28;20071;-76
2022/03/18 08:50:41;;;;;;;27.02;16.30;;;17.30;35.50;;;;;;5090075;28;20048;-87
2022/03/18 08:55:55;;;;;;;31.15;18.02;;;17.70;34.30;;;;;;5091487;28;20447;-76
2022/03/18 08:58:47;;;;;;;33.33;17.25;;;18.00;33.50;;;;;;5092263;28;20047;-85
2022/03/18 09:01:13;;;;;;;25.92;15.48;;;17.90;33.40;;;;;;5091383;28;20032;-76
2022/03/18 09:03:47;;;;;;;25.33;14.73;;;17.80;32.90;;;;;;5091303;28;20450;-86
2022/03/18 09:06:15;;;;;;;28.40;15.57;;;18.00;32.40;;;;;;5077618;28;20020;-85
2022/03/18 09:08:42;;;;;;;;;;;17.90;32.20;;;;;;5095642;28;20028;-85
2022/03/18 09:11:10;;;;;;;30.80;17.75;;;18.00;33.00;;;;;;5077354;28;19938;-84
2022/03/18 09:13:38;;;;;;;29.85;17.02;;;18.80;31.00;;;;;;5094098;28;20055;-85
2022/03/18 09:16:04;;;;;;;28.27;16.45;;;19.70;30.00;;;;;;5077489;28;20032;-77
2022/03/18 09:18:49;;;;;;;28.40;14.57;;;20.10;28.90;;;;;;5095003;28;20035;-76
2022/03/18 09:21:15;;;;;;;26.50;15.25;;;20.60;28.60;;;;;;5077322;28;20028;-86
2022/03/18 09:23:50;;;;;;;30.25;17.00;;;21.30;28.00;;;;;;5095037;28;20032;-87
2022/03/18 09:26:17;;;;;;;23.30;14.38;;;21.90;27.00;;;;;;5094867;28;20036;-86
2022/03/18 09:28:46;;;;;;;21.80;13.32;;;21.90;26.60;;;;;;5093837;28;20503;-76
2022/03/18 09:31:14;;;;;;;22.90;12.32;;;22.00;26.00;;;;;;5077107;28;20047;-86
2022/03/18 09:33:46;;;;;;;21.17;12.95;;;22.40;24.70;;;;;;5077628;28;20039;-86
2022/03/18 09:36:18;;;;;;;22.35;13.20;;;22.60;24.50;;;;;;5095420;28;20038;-85
2022/03/18 09:38:46;;;;;;;22.27;12.52;;;23.30;24.20;;;;;;5078430;28;20489;-86
2022/03/18 09:41:13;;;;;;;21.70;12.25;;;23.50;22.80;;;;;;5077327;28;20028;-76
2022/03/18 09:43:41;;;;;;;19.30;11.32;;;23.40;23.20;;;;;;5093286;28;20058;-77
2022/03/18 09:46:22;;;;;;;21.67;12.40;;;23.90;22.90;;;;;;5094494;28;20505;-76
2022/03/18 09:48:54;;;;;;;17.40;10.82;;;24.60;22.20;;;;;;5095606;28;20075;-86
2022/03/18 09:51:23;;;;;;;17.75;12.20;;;24.70;22.20;;;;;;5093815;28;20050;-85
2022/03/18 09:53:49;;;;;;;20.83;10.75;;;24.30;22.00;;;;;;5077273;28;20028;-76
2022/03/18 09:56:15;;;;;;;;;;;23.80;22.40;;;;;;5077205;28;20137;-77
2022/03/18 09:58:45;;;;;;;24.08;11.65;;;23.90;23.30;;;;;;5076432;28;19920;-76
2022/03/18 10:01:18;;;;;;;20.60;11.48;;;24.00;22.00;;;;;;5094624;28;20032;-86
2022/03/18 10:03:44;;;;;;;21.02;11.65;;;24.30;21.20;;;;;;5077038;28;20134;-88
2022/03/18 10:06:16;;;;;;;19.77;12.00;;;24.60;21.10;;;;;;5076373;28;20024;-77
2022/03/18 10:08:47;;;;;;;17.63;10.70;;;24.90;20.80;;;;;;5072426;28;20056;-76
2022/03/18 10:11:26;;;;;;;15.55;9.52;;;25.60;19.70;;;;;;5054850;28;20087;-77
2022/03/18 10:14:25;;;;;;;23.00;12.20;;;26.00;19.30;;;;;;5054268;28;20052;-77
2022/03/18 10:16:53;;;;;;;20.02;11.52;;;26.90;18.90;;;;;;5055405;28;20416;-86
2022/03/18 10:19:23;;;;;;;18.08;11.50;;;27.80;18.00;;;;;;5055629;28;20171;-87
2022/03/18 10:22:09;;;;;;;20.63;13.13;;;28.40;17.50;;;;;;5055450;28;20051;-87
2022/03/18 10:24:44;;;;;;;17.10;11.60;;;28.90;17.20;;;;;;5055663;28;20041;-87
2022/03/18 10:27:29;;;;;;;14.80;9.65;;;29.20;16.20;;;;;;5054501;28;20077;-80
2022/03/18 10:29:56;;;;;;;19.08;11.95;;;29.70;15.80;;;;;;5071495;28;20075;-77
2022/03/18 10:32:31;;;;;;;16.48;10.20;;;30.50;15.10;;;;;;5071612;28;20572;-76
2022/03/18 10:38:03;;;;;;;17.17;11.75;;;30.60;15.00;;;;;;5057698;28;20071;-87
2022/03/18 10:40:50;;;;;;;15.55;10.55;;;30.80;14.90;;;;;;5072342;28;20485;-87
2022/03/18 10:43:56;;;;;;;15.63;10.82;;;31.20;14.60;;;;;;5073027;28;20075;-86
2022/03/18 10:46:23;;;;;;;12.55;8.02;;;31.60;14.20;;;;;;5073711;28;20032;-77
2022/03/18 10:49:08;;;;;;;10.52;6.55;;;32.30;13.40;;;;;;5055899;28;20427;-86
2022/03/18 10:51:42;;;;;;;13.77;8.70;;;33.10;13.00;;;;;;5072737;28;20024;-85
2022/03/18 10:54:09;;;;;;;11.98;7.68;;;33.40;12.00;;;;;;5072748;28;20044;-77
2022/03/18 10:57:12;;;;;;;12.45;6.97;;;33.50;11.40;;;;;;5072175;28;20052;-77
2022/03/18 10:59:39;;;;;;;11.93;7.97;;;33.60;12.40;;;;;;5072106;28;20090;-86
2022/03/18 11:02:08;;;;;;;11.73;7.45;;;32.00;12.60;;;;;;5073678;28;20435;-81
2022/03/18 11:04:35;;;;;;;14.68;8.20;;;31.00;13.00;;;;;;5056052;28;20082;-76
2022/03/18 11:12:45;;;;;;;12.40;8.40;;;27.80;13.70;;;;;;5090945;28;20523;-77
2022/03/18 11:16:00;;;;;;;14.18;7.55;;;26.80;14.70;;;;;;5092591;28;20055;-83
2022/03/18 11:18:49;;;;;;;12.45;7.72;;;25.90;15.10;;;;;;5092729;28;20036;-86
2022/03/18 11:21:21;;;;;;;12.05;7.95;;;27.10;15.00;;;;;;5092326;28;20024;-84
2022/03/18 11:23:48;;;;;;;10.98;6.45;;;26.00;15.00;;;;;;5092427;28;20103;-86
2022/03/18 11:26:34;;;;;;;11.48;6.70;;;24.90;15.80;;;;;;5092214;28;20035;-77
2022/03/18 11:29:40;;;;;;;13.10;7.35;;;24.20;16.70;;;;;;5092264;28;20081;-77
2022/03/18 11:35:06;;;;;;;11.73;7.40;;;23.20;17.80;;;;;;5093271;28;20040;-85
2022/03/18 11:37:35;;;;;;;10.30;6.75;;;22.20;18.10;;;;;;5092080;28;20040;-86
2022/03/18 11:40:27;;;;;;;10.25;6.60;;;21.80;18.30;;;;;;5075636;28;20023;-77
2022/03/18 11:43:57;;;;;;;10.65;5.10;;;21.60;18.90;;;;;;5093481;28;20093;-76
2022/03/18 11:46:27;;;;;;;7.40;4.50;;;22.10;18.30;;;;;;5090858;28;20040;-76
2022/03/18 11:49:13;;;;;;;8.35;4.18;;;22.60;18.20;;;;;;5092325;28;20035;-76
2022/03/18 11:52:02;;;;;;;9.02;4.30;;;24.40;16.70;;;;;;5093020;28;20059;-86
2022/03/18 11:54:34;;;;;;;8.57;5.30;;;26.00;15.60;;;;;;5092352;28;20036;-86
2022/03/18 11:57:05;;;;;;;14.95;5.18;;;27.10;14.90;;;;;;5075824;28;20028;-76
2022/03/18 11:59:53;;;;;;;9.50;5.13;;;27.10;14.70;;;;;;5091273;28;20044;-76
2022/03/18 12:05:20;;;;;;;16.73;6.38;;;26.20;15.00;;;;;;5092640;28;20040;-86
2022/03/18 12:07:48;;;;;;;10.38;5.97;;;27.20;14.50;;;;;;5092080;28;20416;-88
2022/03/18 12:10:19;;;;;;;24.38;15.57;;;26.00;14.80;;;;;;5091601;28;20028;-85
2022/03/18 12:13:10;;;;;;;20.67;14.20;;;24.60;15.80;;;;;;5091575;28;20080;-82
2022/03/18 12:15:57;;;;;;;15.43;7.10;;;23.70;16.80;;;;;;5073925;28;20032;-76
2022/03/18 12:18:32;;;;;;;12.93;8.65;;;22.90;17.10;;;;;;5093526;28;20036;-78
2022/03/18 12:20:58;;;;;;;14.18;6.00;;;22.50;17.70;;;;;;5091612;28;20032;-85
2022/03/18 12:23:25;;;;;;;;;;;22.90;17.60;;;;;;5092640;28;20485;-87
2022/03/18 12:26:12;;;;;;;11.23;5.10;;;22.80;17.30;;;;;;5091550;28;19912;-84
2022/03/18 12:28:57;;;;;;;12.63;6.95;;;23.00;16.90;;;;;;5075134;28;20036;-77
2022/03/18 12:31:23;;;;;;;13.38;7.03;;;23.60;16.70;;;;;;5090513;28;20036;-84
2022/03/18 12:34:13;;;;;;;17.20;9.35;;;24.80;16.20;;;;;;5093219;28;20407;-77
2022/03/18 12:36:43;;;;;;;10.30;5.95;;;24.90;16.10;;;;;;5091604;28;20062;-76
2022/03/18 12:39:29;;;;;;;14.98;7.03;;;23.60;16.60;;;;;;5091845;28;20085;-77
2022/03/18 12:42:14;;;;;;;15.77;9.37;;;22.30;17.10;;;;;;5095444;28;20107;-77
2022/03/18 12:45:00;;;;;;;16.83;7.53;;;21.70;18.60;;;;;;5095379;28;20032;-76
2022/03/18 12:47:31;;;;;;;11.10;6.60;;;21.20;18.70;;;;;;5096659;28;20354;-76
2022/03/18 12:50:00;;;;;;;10.70;5.53;;;20.80;18.90;;;;;;5095621;28;20032;-77
2022/03/18 12:52:28;;;;;;;11.77;6.70;;;21.00;19.00;;;;;;5095032;28;20071;-86
2022/03/18 12:55:17;;;;;;;13.40;7.63;;;21.80;18.50;;;;;;5095831;28;20020;-87
2022/03/18 12:57:58;;;;;;;13.30;6.93;;;22.60;17.20;;;;;;5096469;28;20032;-77
2022/03/18 13:00:59;;;;;;;12.65;6.65;;;22.40;17.50;;;;;;5093544;28;20036;-87
2022/03/18 13:04:04;;;;;;;10.88;6.75;;;21.70;17.90;;;;;;5095264;28;20036;-76
2022/03/18 13:06:32;;;;;;;9.57;6.10;;;21.50;18.20;;;;;;5077956;28;20515;-85
2022/03/18 13:09:18;;;;;;;10.63;6.22;;;21.50;18.10;;;;;;5079079;28;20036;-86
2022/03/18 13:11:47;;;;;;;12.15;6.50;;;21.10;18.50;;;;;;5095656;28;20063;-86
2022/03/18 13:14:35;;;;;;;16.00;8.10;;;21.00;19.00;;;;;;5095009;28;20039;-86
2022/03/18 13:17:03;;;;;;;14.48;7.10;;;21.20;18.60;;;;;;5093906;28;20036;-87
2022/03/18 13:19:50;;;;;;;11.25;6.43;;;21.40;18.40;;;;;;5096198;28;20028;-87
2022/03/18 13:22:42;;;;;;;13.75;7.38;;;21.50;18.50;;;;;;5077795;28;20029;-76
2022/03/18 13:25:11;;;;;;;14.00;7.82;;;21.50;18.50;;;;;;5078427;28;20078;-87
2022/03/18 13:27:38;;;;;;;9.32;6.03;;;21.40;18.60;;;;;;5094904;28;20051;-85
2022/03/18 13:33:19;;;;;;;15.48;8.45;;;20.90;18.70;;;;;;5075106;28;20047;-78
2022/03/18 13:36:05;;;;;;;17.98;9.32;;;20.90;18.20;;;;;;5074173;28;20036;-76
2022/03/18 13:38:32;;;;;;;13.68;7.63;;;20.80;18.40;;;;;;5075012;28;20067;-85
2022/03/18 13:41:20;;;;;;;20.23;11.02;;;20.80;18.40;;;;;;5074934;28;20047;-77
2022/03/18 13:44:18;;;;;;;12.25;7.25;;;21.00;18.30;;;;;;5074623;28;20086;-76
2022/03/18 13:47:05;;;;;;;12.32;7.05;;;21.00;18.30;;;;;;5085908;28;20149;-76